createdAt,value
2018-11-07T00:02:00.123Z,32.27
2018-11-07T00:04:25.257Z,34.67
2018-11-07T00:06:50.365Z,35.87
2018-11-07T00:09:15.453Z,37.07
2018-11-07T00:11:40.627Z,38.83
2018-11-07T00:14:05.890Z,39.23
2018-11-07T00:16:30.924Z,33.60
2018-11-07T00:18:56.078Z,30.77
2018-11-07T00:21:21.174Z,31.83
2018-11-07T00:26:41.346Z,26.13
2018-11-07T00:29:06.572Z,25.87
2018-11-07T00:31:31.677Z,30.23
2018-11-07T00:33:56.791Z,32.43
2018-11-07T00:36:21.898Z,30.90
2018-11-07T00:38:47.088Z,33.03
2018-11-07T00:41:12.187Z,30.17
2018-11-07T00:43:37.318Z,31.90
2018-11-07T00:46:02.414Z,37.20
2018-11-07T00:48:27.510Z,32.97
2018-11-07T00:50:52.661Z,35.80
2018-11-07T00:53:17.761Z,34.33
2018-11-07T00:55:42.953Z,33.73
2018-11-07T00:58:08.153Z,35.53
2018-11-07T01:00:33.190Z,32.77
2018-11-07T01:03:09.828Z,34.47
2018-11-07T01:05:34.953Z,34.07
2018-11-07T01:08:00.064Z,32.10
2018-11-07T01:10:25.137Z,34.27
2018-11-07T01:12:50.236Z,35.03
2018-11-07T01:15:15.467Z,34.57
2018-11-07T01:17:59.537Z,32.93
2018-11-07T01:20:24.636Z,29.37
2018-11-07T01:22:49.763Z,32.10
2018-11-07T01:25:14.954Z,32.07
2018-11-07T01:27:40.041Z,30.47
2018-11-07T01:30:05.710Z,30.97
2018-11-07T01:32:30.805Z,31.70
2018-11-07T01:34:55.927Z,34.60
2018-11-07T01:37:21.026Z,36.10
2018-11-07T01:39:46.145Z,37.63
2018-11-07T01:42:11.416Z,39.30
2018-11-07T01:44:36.452Z,35.97
2018-11-07T01:47:01.574Z,34.17
2018-11-07T01:49:26.713Z,33.93
2018-11-07T01:51:51.871Z,36.73
2018-11-07T01:54:35.971Z,32.13
2018-11-07T01:57:01.070Z,31.97
2018-11-07T01:59:26.212Z,38.37
2018-11-07T02:01:51.319Z,35.73
2018-11-07T02:04:16.437Z,33.70
2018-11-07T02:06:41.571Z,36.00
2018-11-07T02:09:09.306Z,37.43
2018-11-07T02:11:34.402Z,36.30
2018-11-07T02:13:59.541Z,32.27
2018-11-07T02:16:24.679Z,40.50
2018-11-07T02:18:49.794Z,37.43
2018-11-07T02:21:14.884Z,29.17
2018-11-07T02:23:40.031Z,25.33
2018-11-07T02:26:05.169Z,29.00
2018-11-07T02:28:30.314Z,28.20
2018-11-07T02:30:55.416Z,23.17
2018-11-07T02:33:20.521Z,23.30
2018-11-07T02:35:45.604Z,24.37
2018-11-07T02:43:42.772Z,16.87
2018-11-07T02:46:08.596Z,25.07
2018-11-07T02:48:33.688Z,26.83
2018-11-07T02:50:58.787Z,24.20
2018-11-07T02:53:23.934Z,26.77
2018-11-07T02:55:48.992Z,28.00
2018-11-07T02:58:14.118Z,33.20
2018-11-07T03:00:39.201Z,32.13
2018-11-07T03:03:23.325Z,27.30
2018-11-07T03:05:48.497Z,31.90
2018-11-07T03:08:13.804Z,31.77
2018-11-07T03:10:38.946Z,31.57
2018-11-07T03:13:03.996Z,30.27
2018-11-07T03:15:29.105Z,45.00
2018-11-07T03:17:54.169Z,29.60
2018-11-07T03:20:19.275Z,28.37
2018-11-07T03:22:44.367Z,30.80
2018-11-07T03:25:09.483Z,31.97
2018-11-07T03:27:34.685Z,28.70
2018-11-07T03:32:36.694Z,27.40
2018-11-07T03:35:01.786Z,28.27
2018-11-07T03:37:26.867Z,30.83
2018-11-07T03:39:52.168Z,31.93
2018-11-07T03:42:17.068Z,36.67
2018-11-07T03:44:42.213Z,33.23
2018-11-07T03:47:07.443Z,43.57
2018-11-07T03:49:32.512Z,37.03
2018-11-07T03:51:57.584Z,61.67
2018-11-07T03:56:59.702Z,37.90
2018-11-07T03:59:24.782Z,35.90
2018-11-07T04:01:49.962Z,37.80
2018-11-07T04:04:15.008Z,40.87
2018-11-07T04:06:40.183Z,67.07
2018-11-07T04:09:07.648Z,64.87
2018-11-07T04:11:51.749Z,47.53
2018-11-07T04:14:16.920Z,47.37
2018-11-07T04:16:42.048Z,36.13
2018-11-07T04:19:07.763Z,35.73
2018-11-07T04:21:32.887Z,42.33
2018-11-07T04:24:16.935Z,41.20
2018-11-07T04:27:00.999Z,53.10
2018-11-07T04:29:26.100Z,74.30
2018-11-07T04:31:51.180Z,97.77
2018-11-07T04:34:35.270Z,41.53
2018-11-07T04:37:00.422Z,50.73
2018-11-07T04:39:25.675Z,128.33
2018-11-07T04:41:50.779Z,64.33
2018-11-07T04:44:15.948Z,75.43
2018-11-07T04:46:41.049Z,43.23
2018-11-07T04:49:06.305Z,35.83
2018-11-07T04:51:31.390Z,32.53
2018-11-07T04:53:56.480Z,26.40
2018-11-07T04:56:21.622Z,27.67
2018-11-07T04:58:46.695Z,25.20
2018-11-07T05:01:11.769Z,25.07
2018-11-07T05:03:37.177Z,24.23
2018-11-07T05:06:02.260Z,23.70
2018-11-07T05:08:27.439Z,23.43
2018-11-07T05:10:52.548Z,40.90
2018-11-07T05:13:17.647Z,39.00
2018-11-07T05:15:42.754Z,19.63
2018-11-07T05:18:07.837Z,19.70
2018-11-07T05:20:32.957Z,20.40
2018-11-07T05:22:58.087Z,18.87
2018-11-07T05:33:12.110Z,20.40
2018-11-07T05:35:37.271Z,20.37
2018-11-07T05:38:02.379Z,21.10
2018-11-07T05:40:27.532Z,21.87
2018-11-07T05:42:52.697Z,21.47
2018-11-07T05:45:17.828Z,21.37
2018-11-07T05:47:42.933Z,20.37
2018-11-07T05:50:09.220Z,21.13
2018-11-07T05:52:34.349Z,20.37
2018-11-07T05:55:07.762Z,18.47
2018-11-07T05:57:32.919Z,17.97
2018-11-07T05:59:57.986Z,18.30
2018-11-07T06:02:23.157Z,18.13
2018-11-07T06:04:48.225Z,17.93
2018-11-07T06:07:13.314Z,18.73
2018-11-07T06:09:38.445Z,18.17
2018-11-07T06:12:03.547Z,19.43
2018-11-07T06:14:28.692Z,22.27
2018-11-07T06:16:53.775Z,19.57
2018-11-07T06:19:18.831Z,21.50
2018-11-07T06:21:43.973Z,21.70
2018-11-07T06:24:09.110Z,21.27
2018-11-07T06:26:34.253Z,22.30
2018-11-07T06:28:59.328Z,21.17
2018-11-07T06:31:24.417Z,22.47
2018-11-07T06:33:49.554Z,31.67
2018-11-07T06:36:14.608Z,26.80
2018-11-07T06:38:39.741Z,28.27
2018-11-07T06:41:04.824Z,27.60
2018-11-07T06:46:08.970Z,24.03
2018-11-07T06:48:34.084Z,34.33
2018-11-07T06:50:59.239Z,31.87
2018-11-07T06:56:02.796Z,32.70
2018-11-07T06:58:28.866Z,26.40
2018-11-07T07:00:53.939Z,32.17
2018-11-07T07:03:19.018Z,28.87
2018-11-07T07:05:44.113Z,34.23
2018-11-07T07:08:09.215Z,28.60
2018-11-07T07:10:34.296Z,27.63
2018-11-07T07:12:59.392Z,31.57
2018-11-07T07:15:24.507Z,30.00
2018-11-07T07:17:49.609Z,31.63
2018-11-07T07:22:54.263Z,34.53
2018-11-07T07:25:19.379Z,34.07
2018-11-07T07:27:45.377Z,31.70
2018-11-07T07:30:13.237Z,30.20
2018-11-07T07:32:57.284Z,32.63
2018-11-07T07:35:22.306Z,30.23
2018-11-07T07:37:47.440Z,30.33
2018-11-07T07:40:31.534Z,40.77
2018-11-07T07:42:56.653Z,36.97
2018-11-07T07:45:21.819Z,37.53
2018-11-07T07:47:47.134Z,30.77
2018-11-07T07:50:30.962Z,31.07
2018-11-07T07:52:56.127Z,34.50
2018-11-07T07:55:21.210Z,31.30
2018-11-07T07:57:46.256Z,29.23
2018-11-07T08:00:21.920Z,28.00
2018-11-07T08:02:48.146Z,34.10
2018-11-07T08:05:13.339Z,35.37
2018-11-07T08:07:38.551Z,39.60
2018-11-07T08:10:03.669Z,39.60
2018-11-07T08:12:28.787Z,35.90
2018-11-07T08:14:53.898Z,38.37
2018-11-07T08:17:19.026Z,47.97
2018-11-07T08:19:55.623Z,39.97
2018-11-07T08:22:20.724Z,37.33
2018-11-07T08:24:45.877Z,36.23
2018-11-07T08:27:10.968Z,38.77
2018-11-07T08:29:55.047Z,35.90
2018-11-07T08:32:32.762Z,37.27
2018-11-07T08:35:17.091Z,32.73
2018-11-07T08:37:43.180Z,30.47
2018-11-07T08:42:47.643Z,30.67
2018-11-07T08:45:13.571Z,30.90
2018-11-07T08:47:38.735Z,29.03
2018-11-07T08:50:03.951Z,33.00
2018-11-07T08:52:29.055Z,33.53
2018-11-07T08:54:54.232Z,31.97
2018-11-07T08:57:19.312Z,28.23
2018-11-07T08:59:44.465Z,29.90
2018-11-07T09:02:28.500Z,26.37
2018-11-07T09:04:53.606Z,27.90
2018-11-07T09:07:18.740Z,23.73
2018-11-07T09:09:44.038Z,26.40
2018-11-07T09:12:09.231Z,25.93
2018-11-07T09:14:34.317Z,26.33
2018-11-07T09:16:59.441Z,27.47
2018-11-07T09:19:43.523Z,27.17
2018-11-07T09:22:08.654Z,28.73
2018-11-07T09:24:33.880Z,27.27
2018-11-07T09:27:17.880Z,22.60
2018-11-07T09:29:42.968Z,19.90
2018-11-07T09:32:08.076Z,23.20
2018-11-07T09:34:33.232Z,55.37
2018-11-07T09:36:58.329Z,22.93
2018-11-07T09:39:23.445Z,33.87
2018-11-07T09:41:48.660Z,41.30
2018-11-07T09:44:13.838Z,27.43
2018-11-07T09:46:39.171Z,23.77
2018-11-07T09:49:04.301Z,18.90
2018-11-07T09:51:29.712Z,26.10
2018-11-07T09:53:54.993Z,25.60
2018-11-07T09:56:20.014Z,18.27
2018-11-07T09:58:45.157Z,16.93
2018-11-07T10:01:10.282Z,16.90
2018-11-07T10:03:35.547Z,16.60
2018-11-07T10:06:00.690Z,17.70
2018-11-07T10:08:27.485Z,19.93
2018-11-07T10:10:52.616Z,16.10
2018-11-07T10:13:36.658Z,15.53
2018-11-07T10:16:01.795Z,22.00
2018-11-07T10:18:26.972Z,14.23
2018-11-07T10:20:52.077Z,16.53
2018-11-07T10:23:17.226Z,15.47
2018-11-07T10:25:42.320Z,15.30
2018-11-07T10:28:07.842Z,15.33
2018-11-07T10:30:32.643Z,13.13
2018-11-07T10:32:57.730Z,14.87
2018-11-07T10:35:22.921Z,13.23
2018-11-07T10:38:07.160Z,13.60
2018-11-07T10:40:51.045Z,18.03
2018-11-07T10:43:16.182Z,20.97
2018-11-07T10:45:41.335Z,18.10
2018-11-07T10:48:06.750Z,13.63
2018-11-07T10:50:31.866Z,12.50
2018-11-07T10:52:56.986Z,21.03
2018-11-07T10:55:22.084Z,12.40
2018-11-07T10:57:47.294Z,15.93
2018-11-07T11:00:32.286Z,12.60
2018-11-07T11:03:16.148Z,13.57
2018-11-07T11:05:41.371Z,16.13
2018-11-07T11:08:06.650Z,39.83
2018-11-07T11:10:31.798Z,22.23
2018-11-07T11:12:56.891Z,12.60
2018-11-07T11:15:22.051Z,17.33
2018-11-07T11:17:47.178Z,15.47
2018-11-07T11:20:13.825Z,11.27
2018-11-07T11:22:38.944Z,21.30
2018-11-07T11:25:04.185Z,15.30
2018-11-07T11:27:29.396Z,10.90
2018-11-07T11:30:13.387Z,10.77
2018-11-07T11:32:38.823Z,15.37
2018-11-07T11:35:03.958Z,13.83
2018-11-07T11:37:28.962Z,13.70
2018-11-07T11:39:54.127Z,9.67
2018-11-07T11:42:19.245Z,11.67
2018-11-07T11:44:44.383Z,14.40
2018-11-07T11:47:09.490Z,11.77
2018-11-07T11:49:53.566Z,10.90
2018-11-07T11:55:13.711Z,11.53
2018-11-07T11:57:57.766Z,8.60
2018-11-07T12:00:41.838Z,8.30
2018-11-07T12:03:06.975Z,7.83
2018-11-07T12:05:51.066Z,8.30
2018-11-07T12:08:35.277Z,9.23
2018-11-07T12:11:00.360Z,7.87
2018-11-07T12:13:44.562Z,7.53
2018-11-07T12:16:09.769Z,9.00
2018-11-07T12:18:53.878Z,6.87
2018-11-07T12:21:19.118Z,7.47
2018-11-07T12:24:03.096Z,6.92
2018-11-07T12:26:28.238Z,9.00
2018-11-07T12:28:53.368Z,7.33
2018-11-07T12:31:18.497Z,6.67
2018-11-07T12:33:43.710Z,7.08
2018-11-07T12:36:27.855Z,6.95
2018-11-07T12:38:52.939Z,5.72
2018-11-07T12:44:13.367Z,6.90
2018-11-07T12:46:38.596Z,6.72
2018-11-07T12:49:22.683Z,6.50
2018-11-07T12:51:47.781Z,5.83
2018-11-07T12:54:12.846Z,6.47
2018-11-07T12:56:37.969Z,5.87
2018-11-07T12:59:03.084Z,5.70
2018-11-07T13:01:47.183Z,5.20
2018-11-07T13:04:12.268Z,7.25
2018-11-07T13:06:39.142Z,6.67
2018-11-07T13:09:23.963Z,7.15
2018-11-07T13:11:49.077Z,6.08
2018-11-07T13:14:33.184Z,8.58
2018-11-07T13:16:58.682Z,5.95
2018-11-07T13:19:42.772Z,7.58
2018-11-07T13:22:26.941Z,8.03
2018-11-07T13:24:51.924Z,6.33
2018-11-07T13:27:17.031Z,5.85
2018-11-07T13:29:42.119Z,7.35
2018-11-07T13:32:26.320Z,23.35
2018-11-07T13:34:51.450Z,16.32
2018-11-07T13:37:35.747Z,8.98
2018-11-07T13:40:31.898Z,6.85
2018-11-07T13:42:57.123Z,5.85
2018-11-07T13:45:41.150Z,5.78
2018-11-07T13:48:17.877Z,5.75
2018-11-07T13:50:42.987Z,5.45
2018-11-07T13:53:08.144Z,8.73
2018-11-07T13:55:33.146Z,5.87
2018-11-07T13:58:17.218Z,6.97
2018-11-07T14:03:18.507Z,5.47
2018-11-07T14:05:43.741Z,5.58
2018-11-07T14:08:08.721Z,5.43
2018-11-07T14:10:52.773Z,7.20
2018-11-07T14:13:17.905Z,4.17
2018-11-07T14:16:02.055Z,6.90
2018-11-07T14:18:27.036Z,5.90
2018-11-07T14:20:52.109Z,7.40
2018-11-07T14:23:17.169Z,7.53
2018-11-07T14:25:42.221Z,4.62
2018-11-07T14:28:08.120Z,8.53
2018-11-07T14:30:33.047Z,7.57
2018-11-07T14:33:09.559Z,8.50
2018-11-07T14:35:53.654Z,5.63
2018-11-07T14:38:18.775Z,9.40
2018-11-07T14:40:43.857Z,5.73
2018-11-07T14:43:08.996Z,6.43
2018-11-07T14:45:34.093Z,5.47
2018-11-07T14:47:59.175Z,6.20
2018-11-07T14:50:36.886Z,7.93
2018-11-07T14:53:01.995Z,6.13
2018-11-07T14:55:27.115Z,6.60
2018-11-07T14:57:52.197Z,7.13
2018-11-07T15:00:17.725Z,9.40
2018-11-07T15:02:43.712Z,6.83
2018-11-07T15:05:10.312Z,7.00
2018-11-07T15:07:35.488Z,14.43
2018-11-07T15:10:00.811Z,26.07
2018-11-07T15:12:25.931Z,11.77
2018-11-07T15:14:51.031Z,9.07
2018-11-07T15:17:16.291Z,6.97
2018-11-07T15:19:41.245Z,6.73
2018-11-07T15:22:06.726Z,6.17
2018-11-07T15:24:50.879Z,6.23
2018-11-07T15:27:34.973Z,8.17
2018-11-07T15:30:00.067Z,5.43
2018-11-07T15:32:25.184Z,6.57
2018-11-07T15:35:09.733Z,9.20
2018-11-07T15:37:34.809Z,9.27
2018-11-07T15:39:59.939Z,9.10
2018-11-07T15:42:25.045Z,6.53
2018-11-07T15:45:02.861Z,10.77
2018-11-07T15:47:27.963Z,6.87
2018-11-07T15:50:11.812Z,16.93
2018-11-07T15:52:36.953Z,8.83
2018-11-07T15:55:02.023Z,8.03
2018-11-07T15:57:27.123Z,9.23
2018-11-07T15:59:52.272Z,16.67
2018-11-07T16:02:17.348Z,13.17
2018-11-07T16:04:42.437Z,13.03
2018-11-07T16:07:07.531Z,10.17
2018-11-07T16:09:32.668Z,11.03
2018-11-07T16:11:57.773Z,10.87
2018-11-07T16:14:22.917Z,13.50
2018-11-07T16:16:48.014Z,14.00
2018-11-07T16:19:13.129Z,13.53
2018-11-07T16:21:38.238Z,11.13
2018-11-07T16:24:03.469Z,10.90
2018-11-07T16:26:28.562Z,13.13
2018-11-07T16:28:53.724Z,10.97
2018-11-07T16:31:18.852Z,11.83
2018-11-07T16:34:02.902Z,11.83
2018-11-07T16:36:28.031Z,9.20
2018-11-07T16:38:53.143Z,9.87
2018-11-07T16:41:18.454Z,10.03
2018-11-07T16:43:43.385Z,11.43
2018-11-07T16:46:08.524Z,13.77
2018-11-07T16:48:33.741Z,13.17
2018-11-07T16:50:58.810Z,14.50
2018-11-07T16:53:24.047Z,18.30
2018-11-07T16:55:49.141Z,18.67
2018-11-07T16:58:14.251Z,18.43
2018-11-07T17:00:39.398Z,14.43
2018-11-07T17:03:04.523Z,22.50
2018-11-07T17:05:29.660Z,14.00
2018-11-07T17:07:54.958Z,15.87
2018-11-07T17:10:20.084Z,15.80
2018-11-07T17:12:45.253Z,16.03
2018-11-07T17:15:10.317Z,15.23
2018-11-07T17:17:54.436Z,14.20
2018-11-07T17:20:19.575Z,16.20
2018-11-07T17:22:45.074Z,15.27
2018-11-07T17:25:12.432Z,15.03
2018-11-07T17:27:56.518Z,18.97
2018-11-07T17:30:21.648Z,19.30
2018-11-07T17:32:46.780Z,15.30
2018-11-07T17:35:30.859Z,17.10
2018-11-07T17:37:56.002Z,16.47
2018-11-07T17:40:22.711Z,17.43
2018-11-07T17:42:48.090Z,13.93
2018-11-07T17:45:32.787Z,15.47
2018-11-07T17:47:57.947Z,17.57
2018-11-07T17:50:23.871Z,15.70
2018-11-07T17:53:07.928Z,18.90
2018-11-07T17:55:33.074Z,16.07
2018-11-07T17:57:58.364Z,15.80
2018-11-07T18:00:32.548Z,18.90
2018-11-07T18:03:16.671Z,15.60
2018-11-07T18:05:41.804Z,20.87
2018-11-07T18:08:06.913Z,18.23
2018-11-07T18:10:32.076Z,21.80
2018-11-07T18:12:57.205Z,17.17
2018-11-07T18:18:01.669Z,18.97
2018-11-07T18:20:26.773Z,24.70
2018-11-07T18:22:51.957Z,21.50
2018-11-07T18:25:17.799Z,24.00
2018-11-07T18:28:01.947Z,20.50
2018-11-07T18:30:27.080Z,16.73
2018-11-07T18:33:03.881Z,16.40
2018-11-07T18:35:29.029Z,22.10
2018-11-07T18:37:54.161Z,21.77
2018-11-07T18:40:20.448Z,21.63
2018-11-07T18:42:45.675Z,17.93
2018-11-07T18:45:11.749Z,16.83
2018-11-07T18:47:55.804Z,22.57
2018-11-07T18:50:21.304Z,20.13
2018-11-07T18:52:46.321Z,19.90
2018-11-07T18:55:12.758Z,18.10
2018-11-07T18:57:37.922Z,20.43
2018-11-07T19:00:03.033Z,18.13
2018-11-07T19:02:28.286Z,18.67
2018-11-07T19:04:53.507Z,17.33
2018-11-07T19:07:18.657Z,18.77
2018-11-07T19:09:43.821Z,16.93
2018-11-07T19:12:08.968Z,18.53
2018-11-07T19:14:34.121Z,17.20
2018-11-07T19:16:59.244Z,19.73
2018-11-07T19:19:24.404Z,17.37
2018-11-07T19:21:49.531Z,18.60
2018-11-07T19:24:14.670Z,19.33
2018-11-07T19:26:39.898Z,20.00
2018-11-07T19:29:04.989Z,21.53
2018-11-07T19:31:30.232Z,20.37
2018-11-07T19:36:31.807Z,20.90
2018-11-07T19:38:56.943Z,19.50
2018-11-07T19:41:22.071Z,21.53
2018-11-07T19:43:47.237Z,20.23
2018-11-07T19:46:12.415Z,20.77
2018-11-07T19:48:37.588Z,21.43
2018-11-07T19:51:02.727Z,18.67
2018-11-07T19:53:27.920Z,20.90
2018-11-07T19:55:53.054Z,21.57
2018-11-07T19:58:18.193Z,20.33
2018-11-07T20:03:19.675Z,18.70
2018-11-07T20:05:44.868Z,21.53
2018-11-07T20:08:29.015Z,18.17
2018-11-07T20:10:54.170Z,19.00
2018-11-07T20:13:38.276Z,19.53
2018-11-07T20:16:03.408Z,18.47
2018-11-07T20:18:28.545Z,21.73
2018-11-07T20:20:53.692Z,21.93
2018-11-07T20:23:18.939Z,18.87
2018-11-07T20:26:02.926Z,20.60
2018-11-07T20:28:28.104Z,17.47
2018-11-07T20:30:53.395Z,17.77
2018-11-07T20:33:18.531Z,20.87
2018-11-07T20:35:43.826Z,22.90
2018-11-07T20:38:08.847Z,18.33
2018-11-07T20:40:34.014Z,18.60
2018-11-07T20:42:59.150Z,18.73
2018-11-07T20:45:24.305Z,22.47
2018-11-07T20:47:49.451Z,20.83
2018-11-07T20:50:16.047Z,16.57
2018-11-07T20:52:41.765Z,20.53
2018-11-07T20:55:07.021Z,18.10
2018-11-07T20:57:32.135Z,18.63
2018-11-07T21:02:52.731Z,22.00
2018-11-07T21:05:17.879Z,18.30
2018-11-07T21:12:56.187Z,25.17
2018-11-07T21:15:21.906Z,21.67
2018-11-07T21:17:47.320Z,19.40
2018-11-07T21:20:12.454Z,22.93
2018-11-07T21:22:37.622Z,30.90
2018-11-07T21:25:02.741Z,30.80
2018-11-07T21:27:27.883Z,27.10
2018-11-07T21:29:53.001Z,22.60
2018-11-07T21:32:18.206Z,24.00
2018-11-07T21:34:43.399Z,23.07
2018-11-07T21:37:27.501Z,21.57
2018-11-07T21:40:11.878Z,19.87
2018-11-07T21:42:37.075Z,20.17
2018-11-07T21:45:02.325Z,20.83
2018-11-07T21:47:27.448Z,18.47
2018-11-07T21:49:52.659Z,21.80
2018-11-07T21:52:36.822Z,21.03
2018-11-07T21:55:01.950Z,18.80
2018-11-07T21:57:27.161Z,18.70
2018-11-07T21:59:52.299Z,17.87
2018-11-07T22:02:17.452Z,18.40
2018-11-07T22:04:42.548Z,20.00
2018-11-07T22:07:26.770Z,18.77
2018-11-07T22:09:51.908Z,20.17
2018-11-07T22:12:17.089Z,18.33
2018-11-07T22:14:42.466Z,20.57
2018-11-07T22:17:07.519Z,15.77
2018-11-07T22:19:32.599Z,15.97
2018-11-07T22:21:57.720Z,15.80
2018-11-07T22:24:22.912Z,17.07
2018-11-07T22:26:47.961Z,20.20
2018-11-07T22:29:13.147Z,20.83
2018-11-07T22:34:33.781Z,18.23
2018-11-07T22:36:58.992Z,18.77
2018-11-07T22:39:24.111Z,18.33
2018-11-07T22:41:49.255Z,20.00
2018-11-07T22:44:33.338Z,17.20
2018-11-07T22:47:17.413Z,20.57
2018-11-07T22:49:42.498Z,20.27
2018-11-07T22:52:07.819Z,19.40
2018-11-07T22:54:32.949Z,20.93
2018-11-07T22:56:58.055Z,22.37
2018-11-07T22:59:23.176Z,19.87
2018-11-07T23:01:48.283Z,18.73
2018-11-07T23:04:13.404Z,18.40
2018-11-07T23:06:39.247Z,17.93
2018-11-07T23:09:05.240Z,23.50
2018-11-07T23:11:30.510Z,17.40
2018-11-07T23:13:55.860Z,17.17
2018-11-07T23:16:20.936Z,15.67
2018-11-07T23:18:46.060Z,17.67
2018-11-07T23:21:11.145Z,17.17
2018-11-07T23:23:36.308Z,19.87
2018-11-07T23:26:01.407Z,15.43
2018-11-07T23:28:26.524Z,14.67
2018-11-07T23:30:51.652Z,19.70
2018-11-07T23:33:16.770Z,19.00
2018-11-07T23:35:41.896Z,19.63
2018-11-07T23:38:07.012Z,18.37
2018-11-07T23:40:32.195Z,20.17
2018-11-07T23:42:57.305Z,18.63
2018-11-07T23:45:22.472Z,16.33
2018-11-07T23:47:50.111Z,18.40
2018-11-07T23:50:15.248Z,19.00
2018-11-07T23:52:59.093Z,22.57
2018-11-07T23:55:24.799Z,19.30
2018-11-07T23:57:50.718Z,17.90
